NEW MELONES RESERVOIR (NML)

Elevation: 1135' · STANISLAUS R basin · Operator: US Bureau of Reclamation

Provisional data, subject to change.
Query executed Wednesday at 4:22:23   clock

Select a sensor type for a plot of data.
Note: Reservoir Flows are daily averages.

Earlier

Date RES ELE    STORAGE    RES CHG    TOC STO    ABV TOC    OUTFLOW    INFLOW    EVAP    FNF    RIV REL    PPT INC    SPILL    DIS PWR   
 FEET   AF   AF   AF   AF   CFS   CFS   CFS   CFS   CFS   INCHES   CFS   CFS  
02/05/2015 871.09 565449 -50 1970000 -1404551 428 419 16 352 0 0.00 0 428
02/06/2015 871.29 566459 1010 1970000 -1403541 229 761 23 672 0 0.00 0 229
02/07/2015 871.72 568630 2171 1970000 -1401370 445 1551 11 2142 0 1.90 0 445
02/08/2015 873.39 577114 8484 1970000 -1392886 221 4506 8 5436 0 0.79 0 221
02/09/2015 875.83 589647 12533 1970000 -1380353 14 6380 47 7937 0 2.02 0 14
02/10/2015 876.55 593380 3733 1970000 -1376620 36 1925 7 2420 0 0.00 0 36
02/11/2015 876.90 595196 1816 1970000 -1374804 81 1019 22 1311 0 0.00 0 81
02/12/2015 877.24 596967 1771 1970000 -1373033 16 916 7 1150 0 0.00 0 16
02/13/2015 877.60 598846 1879 1970000 -1371154 16 980 17 1203 0 0.00 0 16
02/14/2015 877.84 600098 1252 1970000 -1369902 14 669 24 882 0 0.00 0 14
02/15/2015 878.04 601143 1045 1970000 -1368857 14 551 10 738 0 0.00 0 14
02/16/2015 878.27 602350 1207 1970000 -1367650 52 676 15 836 0 0.00 0 52
02/17/2015 878.46 603347 997 1970000 -1366653 108 626 15 763 0 0.00 0 108
02/18/2015 878.60 604081 734 1970000 -1365919 43 437 24 577 0 0.00 0 43
02/19/2015 878.65 604344 263 1970000 -1365656 398 541 10 666 0 0.00 0 398
02/20/2015 878.68 604501 157 1970000 -1365499 402 493 12 599 0 0.00 0 402
02/21/2015 878.69 604553 52 -- -- 366 406 14 500 0 0.01 0 366
02/22/2015 878.86 605445 892 1970000 -- 49 502 3 582 0 0.00 0 49
02/23/2015 878.89 605603 158 1970000 -1364397 376 470 14 504 0 0.00 0 376
02/24/2015 878.84 605340 -263 1970000 -1364660 437 313 9 335 0 0.00 0 437
02/25/2015 878.75 604868 -472 -- -- 575 351 14 372 0 0.00 0 575
02/26/2015 878.77 604973 105 1970000 -1365027 495 558 10 576 0 0.00 0 495
02/27/2015 878.84 605340 367 1970000 -1364660 315 517 17 568 0 0.00 0 315
02/28/2015 878.89 605603 263 1970000 -1364397 410 560 17 647 0 0.00 0 410
03/01/2015 879.01 606233 630 1970000 -1363767 11 346 17 522 0 0.00 0 11
03/02/2015 879.14 606918 685 1970000 -1363082 69 433 19 577 0 0.00 0 69
03/03/2015 879.20 607235 -- 1970000 -- 62 234 12 365 0 0.00 0 62
03/04/2015 -- -- -- -- -- -- -- -- -- -- -- -- --

Later | Latest

Warning! This data is preliminary and subject to revision.

Show NML Map | Plot NML Data | 1 Month NML Data | Real-Time NML Data | NML Info